Time;durP1;ratioP1;P1;durP2;ratioP2;P2;SDS_P1;SDS_P2;PMS_P1;PMS_P2;Temp;Humidity;BMP_temperature;BMP_pressure;BME280_temperature;BME280_humidity;BME280_pressure;Samples;Min_cycle;Max_cycle;Signal;HPM_P1;HPM_P2
2021/10/24 00:00:58;;;;;;;18.53;7.97;;;;;;;;;;5136309;27;20942;-78
2021/10/24 00:03:24;;;;;;;11.00;6.93;;;;;;;;;;5137120;27;20432;-77
2021/10/24 00:05:51;;;;;;;13.17;8.13;;;;;;;;;;5135699;27;20448;-77
2021/10/24 00:08:17;;;;;;;15.67;7.87;;;;;;;;;;5134912;27;20412;-77
2021/10/24 00:10:43;;;;;;;17.17;7.90;;;;;;;;;;5136166;27;20473;-77
2021/10/24 00:13:09;;;;;;;12.13;7.80;;;;;;;;;;5135708;27;20404;-77
2021/10/24 00:15:35;;;;;;;17.67;9.90;;;;;;;;;;5134526;27;20508;-77
2021/10/24 00:18:01;;;;;;;17.93;9.10;;;1.80;99.90;;;;;;5135907;27;20754;-77
2021/10/24 00:20:27;;;;;;;18.27;11.93;;;1.70;99.90;;;;;;5135685;27;20231;-77
2021/10/24 00:22:52;;;;;;;22.47;11.80;;;1.80;99.90;;;;;;5135428;27;20206;-77
2021/10/24 00:25:18;;;;;;;20.40;11.90;;;1.70;99.90;;;;;;5135421;27;20194;-77
2021/10/24 00:27:44;;;;;;;17.30;10.73;;;1.70;99.90;;;;;;5135612;27;20171;-79
2021/10/24 00:30:10;;;;;;;18.47;11.27;;;1.60;99.90;;;;;;5135324;27;20198;-77
2021/10/24 00:32:36;;;;;;;17.00;10.43;;;1.60;99.90;;;;;;5135339;27;20178;-77
2021/10/24 00:35:03;;;;;;;18.77;11.63;;;1.60;99.90;;;;;;5135291;27;20515;-77
2021/10/24 00:37:28;;;;;;;19.43;11.57;;;1.60;99.90;;;;;;5134313;27;20178;-78
2021/10/24 00:39:54;;;;;;;18.70;11.73;;;1.50;99.90;;;;;;5135342;27;20893;-77
2021/10/24 00:42:20;;;;;;;17.57;11.10;;;1.50;99.90;;;;;;5135338;27;20636;-78
2021/10/24 00:44:45;;;;;;;18.43;10.37;;;1.50;99.90;;;;;;5133750;27;20186;-78
2021/10/24 00:47:12;;;;;;;15.93;9.53;;;1.50;99.90;;;;;;5134005;27;20174;-77
2021/10/24 00:49:38;;;;;;;16.30;8.97;;;1.50;99.90;;;;;;5135194;27;20654;-78
2021/10/24 00:52:05;;;;;;;16.83;9.23;;;1.50;99.90;;;;;;5133877;27;20455;-77
2021/10/24 00:54:33;;;;;;;13.40;7.93;;;1.50;99.90;;;;;;5134903;27;20440;-77
2021/10/24 00:57:02;;;;;;;17.40;8.37;;;1.50;99.90;;;;;;5134055;27;20753;-77
2021/10/24 00:59:28;;;;;;;18.30;8.97;;;1.50;99.90;;;;;;5135530;27;20468;-77
2021/10/24 01:01:54;;;;;;;13.03;7.67;;;;;;;;;;5133586;27;20443;-78
2021/10/24 01:04:20;;;;;;;15.27;9.30;;;1.40;99.90;;;;;;5135104;27;20404;-77
2021/10/24 01:06:50;;;;;;;15.73;9.67;;;1.40;99.90;;;;;;5134960;27;20462;-77
2021/10/24 01:09:18;;;;;;;15.10;8.87;;;1.40;99.90;;;;;;5133722;27;20425;-77
2021/10/24 01:11:44;;;;;;;17.50;9.40;;;1.30;99.90;;;;;;5134967;27;20773;-77
2021/10/24 01:14:11;;;;;;;13.90;8.97;;;1.50;99.90;;;;;;5135037;27;20419;-77
2021/10/24 01:16:38;;;;;;;15.93;9.33;;;1.20;99.90;;;;;;5136110;28;20408;-77
2021/10/24 01:19:05;;;;;;;14.97;8.47;;;1.20;99.90;;;;;;5135676;28;20416;-77
2021/10/24 01:21:32;;;;;;;14.17;8.77;;;1.20;99.90;;;;;;5133782;28;20436;-77
2021/10/24 01:23:58;;;;;;;14.50;8.60;;;1.20;99.90;;;;;;5133391;28;20435;-77
2021/10/24 01:26:26;;;;;;;17.10;9.50;;;1.50;99.90;;;;;;5133376;28;20460;-77
2021/10/24 01:28:52;;;;;;;14.27;8.43;;;1.70;99.90;;;;;;5133490;28;20423;-78
2021/10/24 01:31:18;;;;;;;15.40;8.47;;;1.10;99.90;;;;;;5133300;28;20527;-77
2021/10/24 01:33:44;;;;;;;12.07;8.30;;;1.10;99.90;;;;;;5133086;28;20509;-77
2021/10/24 01:36:12;;;;;;;12.70;8.30;;;1.10;99.90;;;;;;5134574;28;20308;-77
2021/10/24 01:38:44;;;;;;;14.13;7.93;;;1.10;99.90;;;;;;5133623;28;20186;-77
2021/10/24 01:41:10;;;;;;;17.83;8.27;;;1.00;99.90;;;;;;5133691;28;20447;-77
2021/10/24 01:43:36;;;;;;;14.90;7.93;;;1.00;99.90;;;;;;5134558;28;20416;-77
2021/10/24 01:46:02;;;;;;;10.90;7.13;;;;;;;;;;5134479;28;20588;-77
2021/10/24 01:48:28;;;;;;;10.67;7.40;;;1.10;99.90;;;;;;5133258;28;20412;-78
2021/10/24 01:50:55;;;;;;;11.47;6.77;;;1.00;99.90;;;;;;5134275;28;20484;-77
2021/10/24 01:53:27;;;;;;;14.03;7.43;;;0.90;99.90;;;;;;5134466;28;20563;-77
2021/10/24 01:55:53;;;;;;;13.37;7.07;;;0.90;99.90;;;;;;5134458;28;20393;-77
2021/10/24 01:58:18;;;;;;;9.57;7.17;;;0.90;99.90;;;;;;5134397;28;20812;-77
2021/10/24 02:00:45;;;;;;;9.80;6.87;;;;;;;;;;5134501;28;20235;-77
2021/10/24 02:03:12;;;;;;;10.83;6.63;;;0.90;99.90;;;;;;5134761;27;20175;-77
2021/10/24 02:05:38;;;;;;;12.27;6.53;;;;;;;;;;5133327;28;20463;-77
2021/10/24 02:08:04;;;;;;;9.93;7.00;;;0.90;99.90;;;;;;5133770;28;20412;-78
2021/10/24 02:10:30;;;;;;;12.13;7.10;;;0.90;99.90;;;;;;5134145;28;21001;-77
2021/10/24 02:12:56;;;;;;;12.20;7.40;;;0.80;99.90;;;;;;5134647;28;20495;-78
2021/10/24 02:15:22;;;;;;;10.67;7.40;;;1.50;99.90;;;;;;5134148;28;20183;-78
2021/10/24 02:17:48;;;;;;;12.33;7.20;;;;;;;;;;5132928;28;20186;-77
2021/10/24 02:20:15;;;;;;;9.73;7.03;;;;;;;;;;5132845;27;20432;-77
2021/10/24 02:22:41;;;;;;;9.07;6.33;;;0.80;99.90;;;;;;5136480;27;20794;-77
2021/10/24 02:25:07;;;;;;;13.77;7.30;;;0.90;99.90;;;;;;5136557;27;20456;-78
2021/10/24 02:27:33;;;;;;;11.27;7.07;;;0.90;99.90;;;;;;5138108;27;20173;-77
2021/10/24 02:29:59;;;;;;;10.63;7.10;;;0.80;99.90;;;;;;5136562;27;20408;-77
2021/10/24 02:32:25;;;;;;;11.90;6.70;;;0.80;99.90;;;;;;5140332;27;20269;-78
2021/10/24 02:34:50;;;;;;;8.83;5.83;;;0.70;99.90;;;;;;5141145;27;20175;-78
2021/10/24 02:37:17;;;;;;;10.50;6.37;;;1.20;99.90;;;;;;5141292;27;20255;-78
2021/10/24 02:39:43;;;;;;;10.70;6.17;;;0.70;99.90;;;;;;5141550;27;20409;-77
2021/10/24 02:42:08;;;;;;;11.10;6.10;;;0.70;99.90;;;;;;5140867;27;20174;-78
2021/10/24 02:44:34;;;;;;;11.43;5.93;;;1.10;99.90;;;;;;5140728;27;20170;-78
2021/10/24 02:47:00;;;;;;;9.57;6.17;;;0.60;99.90;;;;;;5140849;27;20210;-78
2021/10/24 02:49:27;;;;;;;11.90;6.40;;;0.60;99.90;;;;;;5139836;27;20171;-78
2021/10/24 02:51:54;;;;;;;8.70;6.00;;;0.60;99.90;;;;;;5141427;27;20194;-78
2021/10/24 02:54:20;;;;;;;11.80;7.10;;;1.70;99.90;;;;;;5141079;27;20389;-77
2021/10/24 02:56:46;;;;;;;11.80;6.80;;;;;;;;;;5139726;27;20416;-77
2021/10/24 02:59:13;;;;;;;11.70;6.37;;;0.60;99.90;;;;;;5140773;27;20405;-78
2021/10/24 03:01:39;;;;;;;10.70;7.00;;;0.60;99.90;;;;;;5138641;27;20941;-78
2021/10/24 03:04:04;;;;;;;9.30;6.10;;;0.60;99.90;;;;;;5140593;27;20532;-77
2021/10/24 03:06:31;;;;;;;12.27;7.23;;;0.60;99.90;;;;;;5139220;27;20202;-78
2021/10/24 03:08:58;;;;;;;11.47;5.87;;;0.50;99.90;;;;;;5139334;27;20185;-78
2021/10/24 03:11:23;;;;;;;10.83;6.57;;;0.40;99.90;;;;;;5138897;27;20436;-78
2021/10/24 03:13:49;;;;;;;11.90;7.07;;;0.30;99.90;;;;;;5140385;27;20408;-78
2021/10/24 03:16:15;;;;;;;10.63;6.77;;;0.60;99.90;;;;;;5141211;27;20172;-78
2021/10/24 03:18:41;;;;;;;10.20;7.10;;;;;;;;;;5141117;27;20179;-78
2021/10/24 03:21:07;;;;;;;12.13;7.63;;;0.30;99.90;;;;;;5140549;27;20198;-78
2021/10/24 03:23:32;;;;;;;11.00;7.10;;;0.40;99.90;;;;;;5140417;27;20409;-78
2021/10/24 03:25:58;;;;;;;10.90;6.50;;;0.40;99.90;;;;;;5138560;27;20205;-78
2021/10/24 03:28:24;;;;;;;11.80;6.90;;;1.20;99.90;;;;;;5138899;27;20265;-78
2021/10/24 03:30:49;;;;;;;13.53;7.50;;;0.40;99.90;;;;;;5140178;27;20205;-78
2021/10/24 03:33:16;;;;;;;10.77;7.10;;;0.40;99.90;;;;;;5138644;27;20198;-78
2021/10/24 03:35:43;;;;;;;12.23;8.33;;;0.40;99.90;;;;;;5139676;27;20265;-78
2021/10/24 03:38:09;;;;;;;14.40;8.73;;;0.70;99.90;;;;;;5141524;27;20902;-78
2021/10/24 03:40:34;;;;;;;11.60;7.60;;;0.60;99.90;;;;;;5140439;27;20451;-78
2021/10/24 03:43:00;;;;;;;11.87;7.67;;;0.30;99.90;;;;;;5143269;27;20632;-78
2021/10/24 03:45:26;;;;;;;11.93;7.13;;;0.30;99.90;;;;;;5143321;27;20198;-77
2021/10/24 03:47:51;;;;;;;14.53;7.47;;;0.90;99.90;;;;;;5139765;27;20175;-78
2021/10/24 03:50:17;;;;;;;11.47;7.60;;;1.00;99.90;;;;;;5138984;27;20803;-78
2021/10/24 03:52:43;;;;;;;14.87;7.70;;;;;;;;;;5140747;27;20171;-78
2021/10/24 03:55:12;;;;;;;11.57;7.37;;;0.30;99.90;;;;;;5138999;27;20178;-78
2021/10/24 03:57:42;;;;;;;43.30;19.80;;;0.30;99.90;;;;;;5138716;27;20463;-78
2021/10/24 04:00:10;;;;;;;18.20;9.50;;;0.80;99.90;;;;;;5139074;27;20437;-78
2021/10/24 04:02:59;;;;;;;16.20;9.27;;;0.00;99.90;;;;;;5139362;27;20412;-78
2021/10/24 04:05:26;;;;;;;22.73;11.47;;;-0.10;99.90;;;;;;5138859;27;20815;-78
2021/10/24 04:07:54;;;;;;;17.53;9.50;;;-0.10;99.90;;;;;;5140941;27;20397;-78
2021/10/24 04:10:22;;;;;;;18.47;8.83;;;-0.10;99.90;;;;;;5140522;27;20435;-78
2021/10/24 04:12:49;;;;;;;20.27;10.43;;;0.50;99.90;;;;;;5138373;27;20507;-78
2021/10/24 04:15:15;;;;;;;43.23;19.50;;;2.30;99.90;;;;;;5139204;27;20416;-78
2021/10/24 04:17:41;;;;;;;32.53;15.73;;;0.40;99.90;;;;;;5145385;27;20416;-78
2021/10/24 04:20:08;;;;;;;18.03;10.03;;;-0.20;99.90;;;;;;5151780;27;20929;-77
2021/10/24 04:22:38;;;;;;;10.53;6.83;;;-0.10;99.90;;;;;;5150829;27;20209;-78
2021/10/24 04:25:06;;;;;;;10.07;6.70;;;-0.10;99.90;;;;;;5144740;27;20446;-78
2021/10/24 04:27:32;;;;;;;21.70;11.80;;;-0.10;99.90;;;;;;5138983;27;20465;-78
2021/10/24 04:30:02;;;;;;;27.70;15.77;;;-0.10;99.90;;;;;;5139867;27;20412;-78
2021/10/24 04:32:28;;;;;;;21.40;11.83;;;-0.10;99.90;;;;;;5138503;27;20187;-78
2021/10/24 04:34:54;;;;;;;18.60;11.00;;;-0.20;99.90;;;;;;5138229;27;20422;-79
2021/10/24 04:37:19;;;;;;;26.83;15.17;;;1.10;99.90;;;;;;5138418;27;20189;-78
2021/10/24 04:39:46;;;;;;;19.67;10.17;;;-0.40;99.90;;;;;;5137966;27;20190;-78
2021/10/24 04:42:12;;;;;;;19.33;10.93;;;-0.40;99.90;;;;;;5139480;27;20176;-78
2021/10/24 04:44:37;;;;;;;14.87;8.77;;;0.30;99.90;;;;;;5137808;27;20414;-78
2021/10/24 04:47:04;;;;;;;16.43;9.27;;;0.00;99.90;;;;;;5140010;27;20187;-78
2021/10/24 04:49:30;;;;;;;11.87;7.60;;;-0.50;99.90;;;;;;5139241;27;20171;-77
2021/10/24 04:51:56;;;;;;;13.00;8.13;;;-0.50;99.90;;;;;;5137392;27;20428;-78
2021/10/24 04:54:22;;;;;;;9.63;6.37;;;-0.40;99.90;;;;;;5140407;27;20185;-78
2021/10/24 04:56:48;;;;;;;11.97;8.37;;;;;;;;;;5138936;27;20419;-78
2021/10/24 04:59:14;;;;;;;9.43;6.37;;;-0.40;99.90;;;;;;5138811;27;20420;-78
2021/10/24 05:01:42;;;;;;;12.60;7.60;;;-0.10;99.90;;;;;;5138873;27;20452;-78
2021/10/24 05:04:08;;;;;;;9.83;6.90;;;;;;;;;;5143536;27;20217;-77
2021/10/24 05:06:34;;;;;;;10.73;7.20;;;-0.50;99.90;;;;;;5151436;27;20464;-77
2021/10/24 05:08:59;;;;;;;8.97;6.97;;;-0.50;99.90;;;;;;5150864;27;20415;-78
2021/10/24 05:11:25;;;;;;;10.73;7.20;;;1.80;99.90;;;;;;5149907;27;20555;-78
2021/10/24 05:13:51;;;;;;;9.77;6.67;;;0.70;99.90;;;;;;5151683;27;20200;-77
2021/10/24 05:16:17;;;;;;;11.53;7.10;;;;;;;;;;5142991;27;20236;-78
2021/10/24 05:18:42;;;;;;;9.63;6.40;;;-0.60;99.90;;;;;;5138140;27;20636;-78
2021/10/24 05:21:08;;;;;;;11.87;6.60;;;0.90;99.90;;;;;;5140499;27;20432;-79
2021/10/24 05:23:33;;;;;;;10.30;6.10;;;-0.60;99.90;;;;;;5144373;28;20175;-78
2021/10/24 05:26:04;;;;;;;7.80;5.87;;;-0.60;99.90;;;;;;5140377;28;20213;-78
2021/10/24 05:28:30;;;;;;;7.80;5.57;;;-0.70;99.90;;;;;;5137257;28;20202;-78
2021/10/24 05:30:55;;;;;;;8.90;5.33;;;-0.80;99.90;;;;;;5139589;27;20781;-79
2021/10/24 05:33:21;;;;;;;7.30;5.30;;;-0.80;99.90;;;;;;5137713;28;20527;-78
2021/10/24 05:35:47;;;;;;;10.67;6.97;;;-0.80;99.90;;;;;;5143230;28;20201;-79
2021/10/24 05:38:13;;;;;;;9.73;6.47;;;;;;;;;;5141727;28;20272;-78
2021/10/24 05:40:38;;;;;;;8.20;6.07;;;-0.80;99.90;;;;;;5138056;27;20252;-78
2021/10/24 05:43:04;;;;;;;8.37;5.53;;;-0.70;99.90;;;;;;5137250;28;20179;-78
2021/10/24 05:45:30;;;;;;;11.00;6.40;;;-0.90;99.90;;;;;;5136716;28;20214;-78
2021/10/24 05:47:55;;;;;;;7.90;6.13;;;-0.90;99.90;;;;;;5136853;28;20659;-78
2021/10/24 05:50:21;;;;;;;11.10;6.23;;;-0.90;99.90;;;;;;5138242;28;20202;-78
2021/10/24 05:52:46;;;;;;;9.47;6.53;;;0.30;99.90;;;;;;5138222;28;20185;-78
2021/10/24 05:55:12;;;;;;;9.13;6.03;;;-0.90;99.90;;;;;;5136862;27;20208;-78
2021/10/24 05:57:38;;;;;;;9.17;7.17;;;;;;;;;;5142167;27;20175;-78
2021/10/24 06:00:05;;;;;;;10.60;6.87;;;-0.90;99.90;;;;;;5142745;27;20530;-78
2021/10/24 06:02:31;;;;;;;10.70;7.63;;;;;;;;;;5143024;27;20465;-78
2021/10/24 06:04:58;;;;;;;9.73;7.10;;;-0.80;99.90;;;;;;5142356;27;20412;-78
2021/10/24 06:07:25;;;;;;;10.77;6.50;;;-0.60;99.90;;;;;;5143835;27;20243;-78
2021/10/24 06:10:01;;;;;;;10.07;7.60;;;-0.80;99.90;;;;;;5144342;27;20412;-78
2021/10/24 06:15:02;;;;;;;9.40;6.67;;;-0.70;99.90;;;;;;5139134;27;20754;-78
2021/10/24 06:17:29;;;;;;;9.70;6.73;;;-0.70;99.90;;;;;;5137084;27;20408;-77
2021/10/24 06:19:55;;;;;;;12.10;7.40;;;-0.50;99.90;;;;;;5138028;27;20407;-77
2021/10/24 06:22:21;;;;;;;12.13;7.37;;;0.80;99.90;;;;;;5137102;27;20425;-77
2021/10/24 06:24:46;;;;;;;13.40;7.73;;;0.40;99.90;;;;;;5147249;27;20171;-78
2021/10/24 06:27:12;;;;;;;19.17;11.93;;;-0.50;99.90;;;;;;5149912;27;20218;-78
2021/10/24 06:29:38;;;;;;;16.57;9.97;;;-0.50;99.90;;;;;;5144779;27;20210;-78
2021/10/24 06:32:04;;;;;;;12.43;8.73;;;1.00;99.90;;;;;;5140580;27;20193;-78
2021/10/24 06:34:29;;;;;;;11.60;6.87;;;-0.40;99.90;;;;;;5140845;27;20164;-78
2021/10/24 06:36:56;;;;;;;11.67;7.63;;;-0.40;99.90;;;;;;5139734;27;20420;-79
2021/10/24 06:39:22;;;;;;;9.83;6.97;;;-0.30;99.90;;;;;;5141414;27;20171;-78
2021/10/24 06:41:47;;;;;;;9.20;6.90;;;-0.30;99.90;;;;;;5139781;27;20443;-78
2021/10/24 06:44:13;;;;;;;12.83;6.90;;;-0.30;99.90;;;;;;5140347;27;20514;-78
2021/10/24 06:46:39;;;;;;;9.37;6.73;;;-0.10;99.90;;;;;;5141615;27;20199;-78
2021/10/24 06:49:04;;;;;;;9.13;6.63;;;1.30;99.90;;;;;;5141642;27;20551;-78
2021/10/24 06:51:30;;;;;;;12.33;7.60;;;-0.30;99.90;;;;;;5139046;27;20198;-78
2021/10/24 06:53:56;;;;;;;9.20;6.57;;;-0.30;99.90;;;;;;5138917;27;20174;-78
2021/10/24 06:56:22;;;;;;;13.83;7.73;;;-0.10;99.90;;;;;;5139726;27;20178;-78
2021/10/24 06:58:47;;;;;;;15.67;7.43;;;-0.10;99.90;;;;;;5142202;27;20171;-78
2021/10/24 07:01:13;;;;;;;10.20;7.00;;;0.50;99.90;;;;;;5141165;27;20742;-78
2021/10/24 07:03:38;;;;;;;11.53;8.00;;;0.00;99.90;;;;;;5142977;27;20178;-78
2021/10/24 07:06:04;;;;;;;10.37;6.70;;;0.70;99.90;;;;;;5143192;27;20198;-78
2021/10/24 07:08:30;;;;;;;8.90;6.57;;;0.30;99.90;;;;;;5143048;27;20201;-78
2021/10/24 07:10:56;;;;;;;11.50;7.00;;;0.30;99.90;;;;;;5143379;27;20217;-79
2021/10/24 07:13:22;;;;;;;10.07;7.27;;;0.40;99.90;;;;;;5143621;27;20166;-78
2021/10/24 07:15:47;;;;;;;10.43;7.37;;;1.80;99.90;;;;;;5143183;27;20531;-78
2021/10/24 07:18:13;;;;;;;12.03;7.50;;;0.60;99.90;;;;;;5142804;27;20178;-78
2021/10/24 07:20:39;;;;;;;10.63;6.57;;;0.70;99.90;;;;;;5142066;27;20202;-78
2021/10/24 07:23:04;;;;;;;8.97;6.50;;;0.80;99.90;;;;;;5142056;27;20174;-78
2021/10/24 07:25:30;;;;;;;11.27;7.47;;;0.90;99.90;;;;;;5139082;27;20675;-77
2021/10/24 07:27:56;;;;;;;9.30;6.37;;;1.10;99.90;;;;;;5139538;27;20648;-80
2021/10/24 07:30:21;;;;;;;10.00;7.07;;;1.10;99.90;;;;;;5141423;27;20214;-77
2021/10/24 07:32:48;;;;;;;12.67;7.33;;;2.90;99.90;;;;;;5139243;27;20235;-78
2021/10/24 07:35:14;;;;;;;7.60;5.93;;;1.40;99.90;;;;;;5139975;27;20171;-78
2021/10/24 07:37:41;;;;;;;8.70;6.40;;;1.70;99.90;;;;;;5142543;27;20400;-78
2021/10/24 07:40:09;;;;;;;8.87;6.70;;;3.30;99.90;;;;;;5141938;27;20439;-78
2021/10/24 07:42:35;;;;;;;9.90;6.77;;;2.20;99.90;;;;;;5142035;27;20751;-78
2021/10/24 07:45:01;;;;;;;7.77;6.03;;;2.80;99.90;;;;;;5143533;27;20740;-78
2021/10/24 07:47:30;;;;;;;8.23;6.37;;;2.90;99.90;;;;;;5143712;27;20407;-79
2021/10/24 07:50:04;;;;;;;8.33;5.97;;;3.20;99.90;;;;;;5144414;27;20469;-78
2021/10/24 07:52:29;;;;;;;5.90;5.07;;;3.30;99.90;;;;;;5144522;27;20392;-80
2021/10/24 07:54:55;;;;;;;9.60;5.83;;;3.70;99.90;;;;;;5144619;27;20409;-79
2021/10/24 07:57:21;;;;;;;5.30;4.80;;;4.30;99.90;;;;;;5143710;27;20182;-78
2021/10/24 07:59:47;;;;;;;6.50;5.47;;;4.80;99.90;;;;;;5143569;27;20514;-78
2021/10/24 08:02:18;;;;;;;6.70;4.90;;;5.60;99.90;;;;;;5144313;27;20461;-78
2021/10/24 08:04:47;;;;;;;5.50;4.73;;;6.30;99.90;;;;;;5143600;27;20407;-79
2021/10/24 08:07:13;;;;;;;7.30;4.17;;;6.90;99.90;;;;;;5144978;27;20199;-79
2021/10/24 08:09:40;;;;;;;4.80;3.90;;;6.90;99.90;;;;;;5143901;27;20175;-79
2021/10/24 08:12:06;;;;;;;5.30;3.53;;;7.10;99.90;;;;;;5144127;27;20275;-80
2021/10/24 08:14:32;;;;;;;5.37;3.70;;;7.40;99.90;;;;;;5144987;27;20176;-80
2021/10/24 08:16:59;;;;;;;4.33;3.33;;;7.70;99.90;;;;;;5147658;27;20187;-79
2021/10/24 08:19:25;;;;;;;4.67;3.60;;;8.40;99.90;;;;;;5153448;27;20238;-79
2021/10/24 08:21:52;;;;;;;5.73;3.20;;;8.40;99.90;;;;;;5152502;27;20195;-79
2021/10/24 08:24:19;;;;;;;5.20;2.73;;;8.60;99.90;;;;;;5151747;27;20178;-79
2021/10/24 08:26:44;;;;;;;5.60;3.57;;;8.80;99.90;;;;;;5151269;27;20210;-79
2021/10/24 08:29:10;;;;;;;5.53;3.07;;;9.00;99.90;;;;;;5153406;27;20196;-80
2021/10/24 08:31:37;;;;;;;3.23;2.87;;;9.10;99.90;;;;;;5153829;27;20218;-79
2021/10/24 08:34:04;;;;;;;5.00;3.13;;;9.10;99.90;;;;;;5150104;27;20197;-81
2021/10/24 08:36:31;;;;;;;4.13;3.00;;;9.40;99.90;;;;;;5146152;27;20203;-80
2021/10/24 08:38:57;;;;;;;3.43;3.13;;;9.60;99.90;;;;;;5143444;27;20270;-80
2021/10/24 08:41:29;;;;;;;6.57;3.47;;;9.70;99.90;;;;;;5143947;27;20217;-80
2021/10/24 08:44:00;;;;;;;4.00;3.30;;;9.60;99.90;;;;;;5141907;27;20702;-80
2021/10/24 08:46:27;;;;;;;4.27;3.43;;;9.90;99.90;;;;;;5145059;27;20208;-80
2021/10/24 08:48:53;;;;;;;4.23;3.57;;;10.40;99.90;;;;;;5143548;27;20265;-81
2021/10/24 08:51:20;;;;;;;3.83;2.90;;;10.70;99.90;;;;;;5143202;27;20200;-81
2021/10/24 08:53:48;;;;;;;4.40;3.23;;;11.10;99.90;;;;;;5142701;27;20178;-81
2021/10/24 08:56:20;;;;;;;6.03;3.60;;;11.20;99.90;;;;;;5143116;27;20179;-80
2021/10/24 08:58:46;;;;;;;3.93;3.13;;;11.30;99.90;;;;;;5144795;27;20263;-80
2021/10/24 09:01:13;;;;;;;7.23;3.80;;;11.50;99.90;;;;;;5142834;27;20232;-80
2021/10/24 09:03:39;;;;;;;6.03;4.33;;;11.80;99.90;;;;;;5144808;27;20176;-80
2021/10/24 09:06:06;;;;;;;5.03;3.60;;;12.10;99.90;;;;;;5145015;27;20205;-80
2021/10/24 09:08:35;;;;;;;4.23;3.83;;;12.30;99.90;;;;;;5145129;27;20173;-80
2021/10/24 09:11:02;;;;;;;4.97;4.17;;;12.70;99.90;;;;;;5144518;27;20204;-80
2021/10/24 09:13:34;;;;;;;5.10;3.70;;;13.20;99.90;;;;;;5142983;27;20201;-79
2021/10/24 09:16:01;;;;;;;4.03;3.47;;;13.30;99.90;;;;;;5143765;27;20166;-80
2021/10/24 09:18:37;;;;;;;4.97;3.90;;;13.60;99.90;;;;;;5143476;27;20633;-80
2021/10/24 09:21:15;;;;;;;4.57;3.63;;;13.60;99.90;;;;;;5141398;27;20202;-80
2021/10/24 09:23:50;;;;;;;4.03;3.60;;;13.30;99.90;;;;;;5142755;27;20697;-80
2021/10/24 09:26:20;;;;;;;4.53;3.43;;;13.20;99.90;;;;;;5142626;28;20220;-80
2021/10/24 09:29:08;;;;;;;3.77;3.33;;;13.50;99.90;;;;;;5145427;27;20249;-80
2021/10/24 09:31:36;;;;;;;4.77;2.90;;;13.60;99.90;;;;;;5144674;27;20194;-80
2021/10/24 09:34:23;;;;;;;3.97;3.03;;;13.70;99.90;;;;;;5147580;27;20316;-80
2021/10/24 09:36:54;;;;;;;4.40;3.53;;;13.70;99.90;;;;;;5147387;27;20251;-81
2021/10/24 09:39:20;;;;;;;4.23;3.00;;;14.00;99.90;;;;;;5149088;27;20171;-80
2021/10/24 09:41:47;;;;;;;4.63;3.87;;;14.40;99.90;;;;;;5148158;27;20286;-80
2021/10/24 09:44:17;;;;;;;4.40;3.37;;;14.50;99.90;;;;;;5149566;27;20175;-80
2021/10/24 09:47:09;;;;;;;3.10;2.80;;;14.50;99.90;;;;;;5149422;27;20191;-80
2021/10/24 09:49:41;;;;;;;3.87;3.23;;;14.60;99.90;;;;;;5145498;27;20190;-82
2021/10/24 09:52:25;;;;;;;5.47;3.40;;;14.90;99.90;;;;;;5147888;27;20190;-80
2021/10/24 09:54:50;;;;;;;3.87;3.47;;;15.30;99.90;;;;;;5143812;27;20184;-79
2021/10/24 09:57:16;;;;;;;3.53;3.10;;;14.70;99.90;;;;;;5127633;28;20201;-79
2021/10/24 09:59:41;;;;;;;5.40;3.40;;;14.60;99.90;;;;;;5125520;28;20197;-80
2021/10/24 10:02:10;;;;;;;3.27;2.90;;;14.70;99.90;;;;;;5126323;28;20596;-80
2021/10/24 10:04:36;;;;;;;5.20;3.43;;;14.90;99.90;;;;;;5126500;28;20179;-80
2021/10/24 10:07:01;;;;;;;3.47;2.83;;;15.10;99.90;;;;;;5126958;28;20199;-80
2021/10/24 10:09:27;;;;;;;3.63;3.20;;;14.80;99.90;;;;;;5126265;28;20165;-80
2021/10/24 10:11:54;;;;;;;3.87;2.90;;;15.10;99.90;;;;;;5124077;28;20184;-78
2021/10/24 10:14:32;;;;;;;4.33;3.03;;;14.90;99.90;;;;;;5119614;28;20179;-78
2021/10/24 10:17:08;;;;;;;2.90;2.50;;;15.30;99.90;;;;;;5126138;28;20270;-78
2021/10/24 10:19:38;;;;;;;3.20;2.90;;;15.30;99.90;;;;;;5126866;28;20244;-80
2021/10/24 10:22:28;;;;;;;2.77;2.57;;;15.70;99.90;;;;;;5121618;28;20199;-79
2021/10/24 10:24:53;;;;;;;3.90;3.20;;;15.90;99.90;;;;;;5134719;27;20175;-78
2021/10/24 10:27:38;;;;;;;3.83;3.00;;;15.90;99.90;;;;;;5134057;27;20257;-79
2021/10/24 10:30:30;;;;;;;4.07;2.80;;;15.90;99.90;;;;;;5136245;27;20199;-79
2021/10/24 10:32:56;;;;;;;3.90;3.07;;;15.90;99.90;;;;;;5127514;27;20196;-79
2021/10/24 10:35:24;;;;;;;6.73;3.63;;;15.70;99.90;;;;;;5137389;27;20173;-78
2021/10/24 10:37:57;;;;;;;3.17;2.87;;;16.20;99.90;;;;;;5137462;27;20176;-78
2021/10/24 10:40:28;;;;;;;4.40;3.40;;;16.40;99.90;;;;;;5136170;27;20197;-78
2021/10/24 10:42:56;;;;;;;3.37;3.00;;;16.60;99.90;;;;;;5132840;27;20176;-78
2021/10/24 10:45:34;;;;;;;4.97;3.07;;;16.90;99.90;;;;;;5137106;27;20278;-79
2021/10/24 10:48:00;;;;;;;3.63;3.33;;;17.10;99.90;;;;;;5134011;27;20173;-78
2021/10/24 10:50:29;;;;;;;3.67;3.30;;;17.20;99.90;;;;;;5131430;27;20196;-79
2021/10/24 10:53:03;;;;;;;3.00;2.80;;;17.20;99.90;;;;;;5138569;27;20177;-81
2021/10/24 10:56:01;;;;;;;4.07;2.90;;;17.40;99.90;;;;;;5137888;27;20627;-78
2021/10/24 10:58:37;;;;;;;5.13;2.90;;;17.30;98.70;;;;;;5130571;27;20183;-79
2021/10/24 11:01:05;;;;;;;4.47;2.83;;;17.60;99.00;;;;;;5139493;27;20258;-79
2021/10/24 11:03:47;;;;;;;3.10;2.80;;;17.90;97.00;;;;;;5137907;27;20176;-78
2021/10/24 11:06:38;;;;;;;2.93;2.73;;;17.30;96.70;;;;;;5127899;27;20196;-79
2021/10/24 11:09:05;;;;;;;3.43;3.03;;;17.50;99.20;;;;;;5126254;27;20707;-78
2021/10/24 11:11:37;;;;;;;3.30;2.90;;;18.10;99.10;;;;;;5137646;27;20193;-77
2021/10/24 11:14:32;;;;;;;3.50;2.73;;;18.10;96.50;;;;;;5132318;27;20238;-78
2021/10/24 11:16:59;;;;;;;3.23;2.50;;;18.20;98.40;;;;;;5126098;27;20632;-78
2021/10/24 11:19:25;;;;;;;5.03;3.47;;;18.00;97.20;;;;;;5144128;27;20174;-78
2021/10/24 11:22:01;;;;;;;7.23;3.00;;;18.30;96.60;;;;;;5144630;27;20200;-78
2021/10/24 11:24:33;;;;;;;3.80;3.20;;;18.70;95.30;;;;;;5143210;27;20176;-80
2021/10/24 11:27:00;;;;;;;3.30;3.00;;;18.90;94.50;;;;;;5146870;27;20228;-82
2021/10/24 11:29:36;;;;;;;3.73;2.90;;;18.60;94.40;;;;;;5147776;27;20182;-82
2021/10/24 11:32:21;;;;;;;4.20;3.17;;;18.80;94.90;;;;;;5146447;27;20199;-82
2021/10/24 11:34:46;;;;;;;4.07;3.60;;;18.70;95.40;;;;;;5148055;27;20657;-82
2021/10/24 11:37:13;;;;;;;3.93;3.20;;;18.90;94.60;;;;;;5145657;27;20179;-83
2021/10/24 11:39:39;;;;;;;3.30;3.00;;;18.90;92.60;;;;;;5144797;27;20177;-83
2021/10/24 11:42:16;;;;;;;2.93;2.70;;;19.10;93.40;;;;;;5144934;27;20607;-82
2021/10/24 11:44:42;;;;;;;4.07;3.03;;;19.20;94.60;;;;;;5144835;27;20211;-82
2021/10/24 11:47:13;;;;;;;3.93;3.00;;;19.80;92.40;;;;;;5143311;27;20201;-79
2021/10/24 11:49:51;;;;;;;5.13;3.40;;;20.00;91.00;;;;;;5145109;27;20166;-79
2021/10/24 11:52:27;;;;;;;6.23;2.87;;;19.70;90.50;;;;;;5145711;27;20153;-81
2021/10/24 11:55:09;;;;;;;3.03;2.73;;;19.60;92.10;;;;;;5143188;27;20218;-79
2021/10/24 12:00:26;;;;;;;3.00;2.80;;;20.20;90.70;;;;;;5146231;27;20554;-79
2021/10/24 12:03:00;;;;;;;4.13;3.00;;;20.30;88.90;;;;;;5144807;27;20196;-80
2021/10/24 12:05:30;;;;;;;3.20;2.77;;;20.30;86.70;;;;;;5145004;27;20258;-80
2021/10/24 12:08:00;;;;;;;5.80;2.80;;;20.40;87.80;;;;;;5145043;27;20188;-80
2021/10/24 12:10:39;;;;;;;3.40;2.70;;;20.10;86.40;;;;;;5146175;27;20197;-80
2021/10/24 12:13:25;;;;;;;2.70;2.50;;;20.40;85.20;;;;;;5146982;27;20161;-80
2021/10/24 12:15:51;;;;;;;4.30;2.67;;;21.00;85.80;;;;;;5145120;27;20220;-80
2021/10/24 12:18:17;;;;;;;4.53;2.67;;;21.80;83.50;;;;;;5144985;27;20179;-80
2021/10/24 12:21:12;;;;;;;4.50;3.10;;;22.40;82.10;;;;;;5146298;27;20746;-80
2021/10/24 12:23:38;;;;;;;3.63;3.03;;;22.30;81.70;;;;;;5133276;27;20186;-80
2021/10/24 12:26:07;;;;;;;4.40;2.70;;;22.90;80.30;;;;;;5146273;27;20257;-80
2021/10/24 12:28:39;;;;;;;2.83;2.57;;;23.10;78.80;;;;;;5145067;27;20630;-80
2021/10/24 12:31:11;;;;;;;3.40;3.10;;;23.20;74.70;;;;;;5143628;27;20223;-80
2021/10/24 12:33:42;;;;;;;3.83;2.50;;;23.20;78.80;;;;;;5145476;27;20197;-80
2021/10/24 12:36:12;;;;;;;3.20;2.87;;;23.90;73.50;;;;;;5148417;27;20203;-80
2021/10/24 12:38:51;;;;;;;3.70;2.90;;;24.10;73.50;;;;;;5149054;27;20174;-80
2021/10/24 12:41:32;;;;;;;3.17;2.67;;;23.30;71.60;;;;;;5151529;27;20194;-80
2021/10/24 12:43:58;;;;;;;3.23;2.40;;;23.80;72.80;;;;;;5152608;27;20172;-80
2021/10/24 12:46:29;;;;;;;2.90;2.70;;;23.90;71.50;;;;;;5147456;27;20191;-80
2021/10/24 12:48:55;;;;;;;3.40;3.10;;;24.70;68.50;;;;;;5143880;27;20600;-80
2021/10/24 12:51:31;;;;;;;5.60;2.80;;;24.30;67.90;;;;;;5143898;27;20277;-80
2021/10/24 12:53:59;;;;;;;2.87;2.60;;;24.10;68.40;;;;;;5143887;27;20185;-80
2021/10/24 12:56:25;;;;;;;2.80;2.50;;;24.10;67.60;;;;;;5144815;27;20199;-80
2021/10/24 12:58:52;;;;;;;4.13;3.10;;;24.10;65.80;;;;;;5143121;27;20182;-80
2021/10/24 13:01:32;;;;;;;4.37;3.20;;;24.60;65.10;;;;;;5143193;27;20233;-80
2021/10/24 13:04:01;;;;;;;3.40;3.10;;;24.40;63.80;;;;;;5143139;27;20546;-80